PWSweather.com
Personal Weather Stations
Station Observations
OZIERI
Punta Idda, OzieriIT

Punta IddaOzieriIT

Lat: 40.584142, Lon: 9.007657999999992

Elevation: 1483

Station Type: Lacrosse ws2350

Latest ConditionsUpdated 7:55:55 AM GMT+01:01 Tuesday, Aug 22, 2017
Currently Today's Max Today's Min Today's Average
Temperature 69.6°F20.9°C 70.5°F21.4°C 63.7°F17.6°C 65.6°F18.7°C
Dew Point 50.2°F10.1°C 52.9°F11.6°C 44.2°F6.8°C 48.0°F8.9°C
Winds 1.1 mph NE1.8 kmh NE 6.9 mph ESE11.1 kmh ESE - 3.6 mph 5.8 kmh
Wind Gusts 3.1 mph5.0 kmh 8.9 mph14.3 kmh - -
Humidity 50% 65% 46% 53%
Pressure 30.11 in1019.6 mb 30.11 in1019.6 mb 30.07 in1018.3 mb -
Hour Temp Dew Point Humidity Winds Wind Gusts Pressure Precip Precip Rate Daily Precip Total
07:55 AM 69.6°F20.9°C 50.2°F10.1°C 50% 1.1 mph NE1.8 kmh NE 3.1 mph5.0 kmh 30.11 in1019.6 mb 0.00 in0.0 mm 0.00 in0.0 mm 0.00 in0.0 mm
07:53 AM 69.6°F20.9°C 49.6°F9.8°C 49% 0.9 mph E1.4 kmh E 3.4 mph5.5 kmh 30.11 in1019.6 mb 0.00 in0.0 mm 0.00 in0.0 mm 0.00 in0.0 mm
07:51 AM 69.8°F21.0°C 49.8°F9.9°C 49% 0.9 mph E1.4 kmh E 2.2 mph3.5 kmh 30.11 in1019.6 mb 0.00 in0.0 mm 0.00 in0.0 mm 0.00 in0.0 mm
07:49 AM 69.8°F21.0°C 49.8°F9.9°C 49% 0.4 mph ENE0.6 kmh ENE 2.0 mph3.2 kmh 30.11 in1019.6 mb 0.00 in0.0 mm 0.00 in0.0 mm 0.00 in0.0 mm
07:46 AM 69.6°F20.9°C 49.6°F9.8°C 49% 0.2 mph WSW0.3 kmh WSW -- 30.11 in1019.6 mb 0.00 in0.0 mm 0.00 in0.0 mm 0.00 in0.0 mm
07:44 AM 69.6°F20.9°C 49.1°F9.5°C 48% 0.4 mph NNE0.6 kmh NNE 1.1 mph1.8 kmh 30.11 in1019.6 mb 0.00 in0.0 mm 0.00 in0.0 mm 0.00 in0.0 mm
07:42 AM 69.6°F20.9°C 49.1°F9.5°C 48% 0.4 mph NNE0.6 kmh NNE 1.3 mph2.1 kmh 30.11 in1019.6 mb 0.00 in0.0 mm 0.00 in0.0 mm 0.00 in0.0 mm
07:40 AM 69.6°F20.9°C 49.1°F9.5°C 48% 0.2 mph NNE0.3 kmh NNE 1.1 mph1.8 kmh 30.11 in1019.6 mb 0.00 in0.0 mm 0.00 in0.0 mm 0.00 in0.0 mm
07:37 AM 69.6°F20.9°C 49.6°F9.8°C 49% 0.2 mph NNE0.3 kmh NNE -- 30.11 in1019.6 mb 0.00 in0.0 mm 0.00 in0.0 mm 0.00 in0.0 mm
07:35 AM 69.6°F20.9°C 49.1°F9.5°C 48% 0.4 mph 0.6 kmh 0.9 mph1.4 kmh 30.11 in1019.6 mb 0.00 in0.0 mm 0.00 in0.0 mm 0.00 in0.0 mm
07:33 AM 70.0°F21.1°C 49.5°F9.7°C 48% 0.4 mph NE0.6 kmh NE 1.8 mph2.9 kmh 30.11 in1019.6 mb 0.00 in0.0 mm 0.00 in0.0 mm 0.00 in0.0 mm
07:31 AM 70.3°F21.3°C 49.6°F9.8°C 48% 0.4 mph ENE0.6 kmh ENE 1.3 mph2.1 kmh 30.11 in1019.6 mb 0.00 in0.0 mm 0.00 in0.0 mm 0.00 in0.0 mm
07:29 AM 70.3°F21.3°C 49.6°F9.8°C 48% 0.2 mph NW0.3 kmh NW -- 30.10 in1019.3 mb 0.00 in0.0 mm 0.00 in0.0 mm 0.00 in0.0 mm
07:26 AM 70.3°F21.3°C 49.1°F9.5°C 47% 0.4 mph ENE0.6 kmh ENE -- 30.10 in1019.3 mb 0.00 in0.0 mm 0.00 in0.0 mm 0.00 in0.0 mm
07:24 AM 70.3°F21.3°C 48.6°F9.2°C 46% 0.4 mph NNW0.6 kmh NNW 1.3 mph2.1 kmh 30.10 in1019.3 mb 0.00 in0.0 mm 0.00 in0.0 mm 0.00 in0.0 mm
07:22 AM 70.5°F21.4°C 48.7°F9.3°C 46% 0.7 mph NW1.1 kmh NW 2.2 mph3.5 kmh 30.10 in1019.3 mb 0.00 in0.0 mm 0.00 in0.0 mm 0.00 in0.0 mm
07:20 AM 70.5°F21.4°C 48.7°F9.3°C 46% 0.2 mph NNW0.3 kmh NNW -- 30.10 in1019.3 mb 0.00 in0.0 mm 0.00 in0.0 mm 0.00 in0.0 mm
07:18 AM 70.3°F21.3°C 49.6°F9.8°C 48% 0.2 mph E0.3 kmh E -- 30.10 in1019.3 mb 0.00 in0.0 mm 0.00 in0.0 mm 0.00 in0.0 mm
07:16 AM 70.2°F21.2°C 49.6°F9.8°C 48% 0.4 mph NNE0.6 kmh NNE -- 30.10 in1019.3 mb 0.00 in0.0 mm 0.00 in0.0 mm 0.00 in0.0 mm
07:13 AM 69.8°F21.0°C 49.8°F9.9°C 49% 0.7 mph ENE1.1 kmh ENE 1.3 mph2.1 kmh 30.10 in1019.3 mb 0.00 in0.0 mm 0.00 in0.0 mm 0.00 in0.0 mm
07:11 AM 69.6°F20.9°C 49.6°F9.8°C 49% 1.1 mph ENE1.8 kmh ENE 1.6 mph2.6 kmh 30.10 in1019.3 mb 0.00 in0.0 mm 0.00 in0.0 mm 0.00 in0.0 mm
07:09 AM 69.3°F20.7°C 49.3°F9.6°C 49% 1.6 mph E2.6 kmh E 2.5 mph4.0 kmh 30.10 in1019.3 mb 0.00 in0.0 mm 0.00 in0.0 mm 0.00 in0.0 mm
07:07 AM 68.9°F20.5°C 49.5°F9.7°C 50% 1.6 mph E2.6 kmh E 2.9 mph4.7 kmh 30.10 in1019.3 mb 0.00 in0.0 mm 0.00 in0.0 mm 0.00 in0.0 mm
07:05 AM 68.5°F20.3°C 49.6°F9.8°C 51% 1.1 mph E1.8 kmh E 2.2 mph3.5 kmh 30.10 in1019.3 mb 0.00 in0.0 mm 0.00 in0.0 mm 0.00 in0.0 mm
07:03 AM 68.4°F20.2°C 50.0°F10.0°C 52% 1.1 mph ENE1.8 kmh ENE 1.6 mph2.6 kmh 30.10 in1019.3 mb 0.00 in0.0 mm 0.00 in0.0 mm 0.00 in0.0 mm
07:00 AM 68.2°F20.1°C 49.8°F9.9°C 52% 1.6 mph E2.6 kmh E 3.1 mph5.0 kmh 30.10 in1019.3 mb 0.00 in0.0 mm 0.00 in0.0 mm 0.00 in0.0 mm
06:58 AM 67.6°F19.8°C 49.8°F9.9°C 53% 1.3 mph SE2.1 kmh SE 2.0 mph3.2 kmh 30.10 in1019.3 mb 0.00 in0.0 mm 0.00 in0.0 mm 0.00 in0.0 mm
06:56 AM 67.6°F19.8°C 49.8°F9.9°C 53% 1.3 mph ESE2.1 kmh ESE 2.5 mph4.0 kmh 30.10 in1019.3 mb 0.00 in0.0 mm 0.00 in0.0 mm 0.00 in0.0 mm
06:53 AM 67.3°F19.6°C 49.6°F9.8°C 53% 0.7 mph E1.1 kmh E 1.1 mph1.8 kmh 30.10 in1019.3 mb 0.00 in0.0 mm 0.00 in0.0 mm 0.00 in0.0 mm
06:51 AM 67.1°F19.5°C 49.5°F9.7°C 53% 0.7 mph ENE1.1 kmh ENE -- 30.10 in1019.3 mb 0.00 in0.0 mm 0.00 in0.0 mm 0.00 in0.0 mm
06:49 AM 66.9°F19.4°C 49.8°F9.9°C 54% 1.3 mph E2.1 kmh E 1.8 mph2.9 kmh 30.10 in1019.3 mb 0.00 in0.0 mm 0.00 in0.0 mm 0.00 in0.0 mm
06:47 AM 66.7°F19.3°C 49.6°F9.8°C 54% 1.3 mph ESE2.1 kmh ESE 2.2 mph3.5 kmh 30.10 in1019.3 mb 0.00 in0.0 mm 0.00 in0.0 mm 0.00 in0.0 mm
06:45 AM 66.6°F19.2°C 49.5°F9.7°C 54% 1.3 mph E2.1 kmh E 2.7 mph4.3 kmh 30.10 in1019.3 mb 0.00 in0.0 mm 0.00 in0.0 mm 0.00 in0.0 mm
06:43 AM 66.4°F19.1°C 49.3°F9.6°C 54% 1.8 mph ESE2.9 kmh ESE 2.7 mph4.3 kmh 30.10 in1019.3 mb 0.00 in0.0 mm 0.00 in0.0 mm 0.00 in0.0 mm
06:41 AM 66.4°F19.1°C 49.6°F9.8°C 55% 2.2 mph E3.5 kmh E 3.4 mph5.5 kmh 30.10 in1019.3 mb 0.00 in0.0 mm 0.00 in0.0 mm 0.00 in0.0 mm
06:39 AM 66.0°F18.9°C 49.5°F9.7°C 55% 2.7 mph ESE4.3 kmh ESE 4.3 mph6.9 kmh 30.10 in1019.3 mb 0.00 in0.0 mm 0.00 in0.0 mm 0.00 in0.0 mm
06:37 AM 66.0°F18.9°C 49.8°F9.9°C 56% 2.2 mph E3.5 kmh E 3.4 mph5.5 kmh 30.10 in1019.3 mb 0.00 in0.0 mm 0.00 in0.0 mm 0.00 in0.0 mm
06:34 AM 65.8°F18.8°C 49.6°F9.8°C 56% 2.2 mph E3.5 kmh E 3.1 mph5.0 kmh 30.10 in1019.3 mb 0.00 in0.0 mm 0.00 in0.0 mm 0.00 in0.0 mm
06:32 AM 65.3°F18.5°C 49.6°F9.8°C 57% 2.5 mph E4.0 kmh E 3.6 mph5.8 kmh 30.10 in1019.3 mb 0.00 in0.0 mm 0.00 in0.0 mm 0.00 in0.0 mm
06:30 AM 65.1°F18.4°C 50.0°F10.0°C 58% 2.7 mph SE4.3 kmh SE 3.8 mph6.1 kmh 30.10 in1019.3 mb 0.00 in0.0 mm 0.00 in0.0 mm 0.00 in0.0 mm
06:27 AM 64.9°F18.3°C 49.8°F9.9°C 58% 3.1 mph SSE5.0 kmh SSE 4.0 mph6.4 kmh 30.10 in1019.3 mb 0.00 in0.0 mm 0.00 in0.0 mm 0.00 in0.0 mm
06:25 AM 64.6°F18.1°C 49.5°F9.7°C 58% 3.4 mph SE5.5 kmh SE 5.1 mph8.2 kmh 30.10 in1019.3 mb 0.00 in0.0 mm 0.00 in0.0 mm 0.00 in0.0 mm
06:23 AM 64.4°F18.0°C 49.8°F9.9°C 59% 3.1 mph E5.0 kmh E 4.5 mph7.2 kmh 30.10 in1019.3 mb 0.00 in0.0 mm 0.00 in0.0 mm 0.00 in0.0 mm
06:21 AM 64.2°F17.9°C 49.6°F9.8°C 59% 2.9 mph ESE4.7 kmh ESE 4.5 mph7.2 kmh 30.10 in1019.3 mb 0.00 in0.0 mm 0.00 in0.0 mm 0.00 in0.0 mm
06:18 AM 64.2°F17.9°C 50.0°F10.0°C 60% 2.7 mph SE4.3 kmh SE 4.3 mph6.9 kmh 30.09 in1019.0 mb 0.00 in0.0 mm 0.00 in0.0 mm 0.00 in0.0 mm
06:16 AM 64.2°F17.9°C 50.0°F10.0°C 60% 2.5 mph ESE4.0 kmh ESE 4.3 mph6.9 kmh 30.10 in1019.3 mb 0.00 in0.0 mm 0.00 in0.0 mm 0.00 in0.0 mm
06:14 AM 64.0°F17.8°C 49.8°F9.9°C 60% 2.9 mph SSE4.7 kmh SSE 4.9 mph7.9 kmh 30.09 in1019.0 mb 0.00 in0.0 mm 0.00 in0.0 mm 0.00 in0.0 mm
06:12 AM 64.0°F17.8°C 50.4°F10.2°C 61% 2.7 mph E4.3 kmh E 3.1 mph5.0 kmh 30.09 in1019.0 mb 0.00 in0.0 mm 0.00 in0.0 mm 0.00 in0.0 mm
06:09 AM 63.7°F17.6°C 50.0°F10.0°C 61% 3.4 mph ESE5.5 kmh ESE 4.0 mph6.4 kmh 30.10 in1019.3 mb 0.00 in0.0 mm 0.00 in0.0 mm 0.00 in0.0 mm
06:07 AM 63.7°F17.6°C 50.0°F10.0°C 61% 3.6 mph SE5.8 kmh SE 5.1 mph8.2 kmh 30.10 in1019.3 mb 0.00 in0.0 mm 0.00 in0.0 mm 0.00 in0.0 mm
06:05 AM 63.7°F17.6°C 50.0°F10.0°C 61% 4.0 mph ESE6.4 kmh ESE 4.7 mph7.6 kmh 30.09 in1019.0 mb 0.00 in0.0 mm 0.00 in0.0 mm 0.00 in0.0 mm
06:03 AM 64.0°F17.8°C 50.4°F10.2°C 61% 4.0 mph SSE6.4 kmh SSE 4.0 mph6.4 kmh 30.09 in1019.0 mb 0.00 in0.0 mm 0.00 in0.0 mm 0.00 in0.0 mm
06:01 AM 64.2°F17.9°C 50.0°F10.0°C 60% 4.5 mph SE7.2 kmh SE 6.0 mph9.7 kmh 30.09 in1019.0 mb 0.00 in0.0 mm 0.00 in0.0 mm 0.00 in0.0 mm
05:59 AM 64.2°F17.9°C 50.0°F10.0°C 60% 4.0 mph SE6.4 kmh SE 4.9 mph7.9 kmh 30.09 in1019.0 mb 0.00 in0.0 mm 0.00 in0.0 mm 0.00 in0.0 mm
05:57 AM 64.6°F18.1°C 50.0°F10.0°C 59% 4.3 mph ESE6.9 kmh ESE 5.1 mph8.2 kmh 30.09 in1019.0 mb 0.00 in0.0 mm 0.00 in0.0 mm 0.00 in0.0 mm
05:54 AM 64.9°F18.3°C 49.8°F9.9°C 58% 4.3 mph SSE6.9 kmh SSE 7.4 mph11.9 kmh 30.09 in1019.0 mb 0.00 in0.0 mm 0.00 in0.0 mm 0.00 in0.0 mm
05:52 AM 65.5°F18.6°C 50.4°F10.2°C 58% 3.4 mph ESE5.5 kmh ESE 4.7 mph7.6 kmh 30.09 in1019.0 mb 0.00 in0.0 mm 0.00 in0.0 mm 0.00 in0.0 mm
05:50 AM 65.7°F18.7°C 50.5°F10.3°C 58% 3.1 mph SE5.0 kmh SE 4.0 mph6.4 kmh 30.09 in1019.0 mb 0.00 in0.0 mm 0.00 in0.0 mm 0.00 in0.0 mm
05:48 AM 65.8°F18.8°C 50.7°F10.4°C 58% 3.1 mph SE5.0 kmh SE 4.9 mph7.9 kmh 30.09 in1019.0 mb 0.00 in0.0 mm 0.00 in0.0 mm 0.00 in0.0 mm
05:46 AM 65.8°F18.8°C 51.6°F10.9°C 60% 2.5 mph SE4.0 kmh SE 4.3 mph6.9 kmh 30.09 in1019.0 mb 0.00 in0.0 mm 0.00 in0.0 mm 0.00 in0.0 mm
05:44 AM 65.5°F18.6°C 51.3°F10.7°C 60% 1.8 mph SE2.9 kmh SE 2.9 mph4.7 kmh 30.09 in1019.0 mb 0.00 in0.0 mm 0.00 in0.0 mm 0.00 in0.0 mm
05:41 AM 65.5°F18.6°C 51.6°F10.9°C 61% 1.3 mph SE2.1 kmh SE 3.6 mph5.8 kmh 30.09 in1019.0 mb 0.00 in0.0 mm 0.00 in0.0 mm 0.00 in0.0 mm
05:39 AM 65.3°F18.5°C 52.0°F11.1°C 62% 1.1 mph SE1.8 kmh SE 2.0 mph3.2 kmh 30.09 in1019.0 mb 0.00 in0.0 mm 0.00 in0.0 mm 0.00 in0.0 mm
05:37 AM 65.1°F18.4°C 52.2°F11.2°C 63% 1.3 mph E2.1 kmh E 2.5 mph4.0 kmh 30.09 in1019.0 mb 0.00 in0.0 mm 0.00 in0.0 mm 0.00 in0.0 mm
05:35 AM 64.8°F18.2°C 51.8°F11.0°C 63% 1.1 mph SE1.8 kmh SE 1.8 mph2.9 kmh 30.09 in1019.0 mb 0.00 in0.0 mm 0.00 in0.0 mm 0.00 in0.0 mm
05:33 AM 64.6°F18.1°C 52.2°F11.2°C 64% 1.1 mph SE1.8 kmh SE 2.0 mph3.2 kmh 30.09 in1019.0 mb 0.00 in0.0 mm 0.00 in0.0 mm 0.00 in0.0 mm
05:30 AM 64.6°F18.1°C 52.2°F11.2°C 64% 1.3 mph SE2.1 kmh SE 1.6 mph2.6 kmh 30.10 in1019.3 mb 0.00 in0.0 mm 0.00 in0.0 mm 0.00 in0.0 mm
05:28 AM 64.6°F18.1°C 52.2°F11.2°C 64% 1.6 mph SE2.6 kmh SE 3.6 mph5.8 kmh 30.09 in1019.0 mb 0.00 in0.0 mm 0.00 in0.0 mm 0.00 in0.0 mm
05:26 AM 64.6°F18.1°C 52.2°F11.2°C 64% 1.3 mph ESE2.1 kmh ESE 2.2 mph3.5 kmh 30.09 in1019.0 mb 0.00 in0.0 mm 0.00 in0.0 mm 0.00 in0.0 mm
05:24 AM 64.8°F18.2°C 52.3°F11.3°C 64% 2.0 mph SE3.2 kmh SE 3.8 mph6.1 kmh 30.09 in1019.0 mb 0.00 in0.0 mm 0.00 in0.0 mm 0.00 in0.0 mm
05:22 AM 64.9°F18.3°C 52.5°F11.4°C 64% 2.7 mph ESE4.3 kmh ESE 3.1 mph5.0 kmh 30.09 in1019.0 mb 0.00 in0.0 mm 0.00 in0.0 mm 0.00 in0.0 mm
05:20 AM 64.9°F18.3°C 52.5°F11.4°C 64% 2.7 mph ESE4.3 kmh ESE 3.1 mph5.0 kmh 30.09 in1019.0 mb 0.00 in0.0 mm 0.00 in0.0 mm 0.00 in0.0 mm
05:18 AM 64.9°F18.3°C 52.9°F11.6°C 65% 2.7 mph SE4.3 kmh SE 3.6 mph5.8 kmh 30.09 in1019.0 mb 0.00 in0.0 mm 0.00 in0.0 mm 0.00 in0.0 mm
05:15 AM 64.9°F18.3°C 52.9°F11.6°C 65% 2.9 mph ESE4.7 kmh ESE 3.6 mph5.8 kmh 30.09 in1019.0 mb 0.00 in0.0 mm 0.00 in0.0 mm 0.00 in0.0 mm
05:13 AM 64.6°F18.1°C 52.5°F11.4°C 65% 2.9 mph ESE4.7 kmh ESE 3.8 mph6.1 kmh 30.09 in1019.0 mb 0.00 in0.0 mm 0.00 in0.0 mm 0.00 in0.0 mm
05:11 AM 64.4°F18.0°C 52.3°F11.3°C 65% 3.1 mph E5.0 kmh E 3.1 mph5.0 kmh 30.09 in1019.0 mb 0.00 in0.0 mm 0.00 in0.0 mm 0.00 in0.0 mm
05:09 AM 64.2°F17.9°C 51.8°F11.0°C 64% 3.8 mph ESE6.1 kmh ESE 4.3 mph6.9 kmh 30.09 in1019.0 mb 0.00 in0.0 mm 0.00 in0.0 mm 0.00 in0.0 mm
05:07 AM 64.2°F17.9°C 51.8°F11.0°C 64% 4.5 mph ESE7.2 kmh ESE 6.3 mph10.1 kmh 30.09 in1019.0 mb 0.00 in0.0 mm 0.00 in0.0 mm 0.00 in0.0 mm
05:05 AM 64.2°F17.9°C 51.8°F11.0°C 64% 4.7 mph E7.6 kmh E 6.5 mph10.5 kmh 30.09 in1019.0 mb 0.00 in0.0 mm 0.00 in0.0 mm 0.00 in0.0 mm
05:03 AM 64.2°F17.9°C 51.8°F11.0°C 64% 4.3 mph E6.9 kmh E 5.1 mph8.2 kmh 30.09 in1019.0 mb 0.00 in0.0 mm 0.00 in0.0 mm 0.00 in0.0 mm
05:00 AM 64.6°F18.1°C 51.6°F10.9°C 63% 4.7 mph E7.6 kmh E 7.2 mph11.6 kmh 30.09 in1019.0 mb 0.00 in0.0 mm 0.00 in0.0 mm 0.00 in0.0 mm
04:58 AM 64.8°F18.2°C 51.8°F11.0°C 63% 5.1 mph E8.2 kmh E 6.7 mph10.8 kmh 30.09 in1019.0 mb 0.00 in0.0 mm 0.00 in0.0 mm 0.00 in0.0 mm
04:56 AM 64.9°F18.3°C 52.0°F11.1°C 63% 4.9 mph E7.9 kmh E 6.9 mph11.1 kmh 30.09 in1019.0 mb 0.00 in0.0 mm 0.00 in0.0 mm 0.00 in0.0 mm
04:54 AM 65.1°F18.4°C 52.2°F11.2°C 63% 4.3 mph E6.9 kmh E 5.1 mph8.2 kmh 30.09 in1019.0 mb 0.00 in0.0 mm 0.00 in0.0 mm 0.00 in0.0 mm
04:52 AM 65.3°F18.5°C 52.0°F11.1°C 62% 4.0 mph E6.4 kmh E 5.1 mph8.2 kmh 30.09 in1019.0 mb 0.00 in0.0 mm 0.00 in0.0 mm 0.00 in0.0 mm
04:49 AM 65.3°F18.5°C 52.0°F11.1°C 62% 3.6 mph E5.8 kmh E 5.6 mph9.0 kmh 30.09 in1019.0 mb 0.00 in0.0 mm 0.00 in0.0 mm 0.00 in0.0 mm
04:47 AM 65.5°F18.6°C 51.6°F10.9°C 61% 3.1 mph E5.0 kmh E 5.1 mph8.2 kmh 30.09 in1019.0 mb 0.00 in0.0 mm 0.00 in0.0 mm 0.00 in0.0 mm
04:45 AM 65.5°F18.6°C 51.6°F10.9°C 61% 2.7 mph ENE4.3 kmh ENE 3.8 mph6.1 kmh 30.09 in1019.0 mb 0.00 in0.0 mm 0.00 in0.0 mm 0.00 in0.0 mm
04:43 AM 65.7°F18.7°C 51.4°F10.8°C 60% 2.5 mph E4.0 kmh E 4.7 mph7.6 kmh 30.09 in1019.0 mb 0.00 in0.0 mm 0.00 in0.0 mm 0.00 in0.0 mm
04:40 AM 65.7°F18.7°C 51.4°F10.8°C 60% 2.2 mph ESE3.5 kmh ESE 3.8 mph6.1 kmh 30.09 in1019.0 mb 0.00 in0.0 mm 0.00 in0.0 mm 0.00 in0.0 mm
04:38 AM 65.8°F18.8°C 51.6°F10.9°C 60% 2.0 mph NE3.2 kmh NE 3.4 mph5.5 kmh 30.09 in1019.0 mb 0.00 in0.0 mm 0.00 in0.0 mm 0.00 in0.0 mm
04:36 AM 65.8°F18.8°C 51.6°F10.9°C 60% 2.2 mph ENE3.5 kmh ENE 4.0 mph6.4 kmh 30.09 in1019.0 mb 0.00 in0.0 mm 0.00 in0.0 mm 0.00 in0.0 mm
04:34 AM 65.5°F18.6°C 50.7°F10.4°C 59% 2.9 mph SE4.7 kmh SE 3.4 mph5.5 kmh 30.09 in1019.0 mb 0.00 in0.0 mm 0.00 in0.0 mm 0.00 in0.0 mm
04:32 AM 65.3°F18.5°C 50.2°F10.1°C 58% 2.9 mph NE4.7 kmh NE 5.6 mph9.0 kmh 30.09 in1019.0 mb 0.00 in0.0 mm 0.00 in0.0 mm 0.00 in0.0 mm
04:29 AM 65.1°F18.4°C 49.5°F9.7°C 57% 2.7 mph E4.3 kmh E 3.8 mph6.1 kmh 30.08 in1018.6 mb 0.00 in0.0 mm 0.00 in0.0 mm 0.00 in0.0 mm
04:27 AM 64.9°F18.3°C 48.9°F9.4°C 56% 2.7 mph E4.3 kmh E 3.4 mph5.5 kmh 30.09 in1019.0 mb 0.00 in0.0 mm 0.00 in0.0 mm 0.00 in0.0 mm
04:25 AM 64.9°F18.3°C 48.4°F9.1°C 55% 3.1 mph E5.0 kmh E 6.7 mph10.8 kmh 30.09 in1019.0 mb 0.00 in0.0 mm 0.00 in0.0 mm 0.00 in0.0 mm
04:23 AM 64.6°F18.1°C 47.5°F8.6°C 54% 2.5 mph E4.0 kmh E 3.8 mph6.1 kmh 30.09 in1019.0 mb 0.00 in0.0 mm 0.00 in0.0 mm 0.00 in0.0 mm
04:21 AM 64.6°F18.1°C 47.1°F8.4°C 53% 2.5 mph E4.0 kmh E 3.4 mph5.5 kmh 30.09 in1019.0 mb 0.00 in0.0 mm 0.00 in0.0 mm 0.00 in0.0 mm
04:18 AM 64.2°F17.9°C 46.8°F8.2°C 53% 2.5 mph ENE4.0 kmh ENE 3.6 mph5.8 kmh 30.09 in1019.0 mb 0.00 in0.0 mm 0.00 in0.0 mm 0.00 in0.0 mm
04:16 AM 64.2°F17.9°C 46.8°F8.2°C 53% 3.1 mph SE5.0 kmh SE 3.6 mph5.8 kmh 30.09 in1019.0 mb 0.00 in0.0 mm 0.00 in0.0 mm 0.00 in0.0 mm
04:14 AM 64.0°F17.8°C 46.0°F7.8°C 52% 3.4 mph ESE5.5 kmh ESE 4.3 mph6.9 kmh 30.09 in1019.0 mb 0.00 in0.0 mm 0.00 in0.0 mm 0.00 in0.0 mm
04:12 AM 64.0°F17.8°C 46.0°F7.8°C 52% 3.6 mph ESE5.8 kmh ESE 4.3 mph6.9 kmh 30.09 in1019.0 mb 0.00 in0.0 mm 0.00 in0.0 mm 0.00 in0.0 mm
04:10 AM 64.0°F17.8°C 46.0°F7.8°C 52% 4.3 mph ESE6.9 kmh ESE 5.4 mph8.7 kmh 30.09 in1019.0 mb 0.00 in0.0 mm 0.00 in0.0 mm 0.00 in0.0 mm
04:08 AM 64.0°F17.8°C 45.5°F7.5°C 51% 4.0 mph E6.4 kmh E 5.1 mph8.2 kmh 30.09 in1019.0 mb 0.00 in0.0 mm 0.00 in0.0 mm 0.00 in0.0 mm
04:06 AM 64.2°F17.9°C 45.7°F7.6°C 51% 3.8 mph ESE6.1 kmh ESE 4.7 mph7.6 kmh 30.09 in1019.0 mb 0.00 in0.0 mm 0.00 in0.0 mm 0.00 in0.0 mm
04:03 AM 64.2°F17.9°C 45.7°F7.6°C 51% 3.6 mph ESE5.8 kmh ESE 5.6 mph9.0 kmh 30.09 in1019.0 mb 0.00 in0.0 mm 0.00 in0.0 mm 0.00 in0.0 mm
04:01 AM 64.2°F17.9°C 45.7°F7.6°C 51% 2.9 mph E4.7 kmh E 4.0 mph6.4 kmh 30.09 in1019.0 mb 0.00 in0.0 mm 0.00 in0.0 mm 0.00 in0.0 mm
03:59 AM 64.2°F17.9°C 45.7°F7.6°C 51% 3.4 mph E5.5 kmh E 4.5 mph7.2 kmh 30.09 in1019.0 mb 0.00 in0.0 mm 0.00 in0.0 mm 0.00 in0.0 mm
03:56 AM 64.2°F17.9°C 45.7°F7.6°C 51% 3.8 mph ESE6.1 kmh ESE 5.6 mph9.0 kmh 30.09 in1019.0 mb 0.00 in0.0 mm 0.00 in0.0 mm 0.00 in0.0 mm
03:54 AM 64.4°F18.0°C 45.3°F7.4°C 50% 3.8 mph ESE6.1 kmh ESE 5.1 mph8.2 kmh 30.09 in1019.0 mb 0.00 in0.0 mm 0.00 in0.0 mm 0.00 in0.0 mm
03:52 AM 64.2°F17.9°C 45.1°F7.3°C 50% 4.0 mph ESE6.4 kmh ESE 6.0 mph9.7 kmh 30.09 in1019.0 mb 0.00 in0.0 mm 0.00 in0.0 mm 0.00 in0.0 mm
03:50 AM 64.2°F17.9°C 45.1°F7.3°C 50% 4.7 mph E7.6 kmh E 5.6 mph9.0 kmh 30.09 in1019.0 mb 0.00 in0.0 mm 0.00 in0.0 mm 0.00 in0.0 mm
03:48 AM 64.2°F17.9°C 45.1°F7.3°C 50% 4.9 mph E7.9 kmh E 6.7 mph10.8 kmh 30.08 in1018.6 mb 0.00 in0.0 mm 0.00 in0.0 mm 0.00 in0.0 mm
03:46 AM 64.6°F18.1°C 45.5°F7.5°C 50% 4.7 mph E7.6 kmh E 6.0 mph9.7 kmh 30.09 in1019.0 mb 0.00 in0.0 mm 0.00 in0.0 mm 0.00 in0.0 mm
03:43 AM 64.6°F18.1°C 45.0°F7.2°C 49% 4.5 mph ESE7.2 kmh ESE 5.4 mph8.7 kmh 30.09 in1019.0 mb 0.00 in0.0 mm 0.00 in0.0 mm 0.00 in0.0 mm
03:41 AM 64.6°F18.1°C 45.5°F7.5°C 50% 5.1 mph SE8.2 kmh SE 7.8 mph12.6 kmh 30.09 in1019.0 mb 0.00 in0.0 mm 0.00 in0.0 mm 0.00 in0.0 mm
03:39 AM 64.6°F18.1°C 45.5°F7.5°C 50% 4.7 mph ESE7.6 kmh ESE 6.0 mph9.7 kmh 30.09 in1019.0 mb 0.00 in0.0 mm 0.00 in0.0 mm 0.00 in0.0 mm
03:37 AM 64.6°F18.1°C 45.0°F7.2°C 49% 4.7 mph ESE7.6 kmh ESE 7.6 mph12.2 kmh 30.09 in1019.0 mb 0.00 in0.0 mm 0.00 in0.0 mm 0.00 in0.0 mm
03:34 AM 64.8°F18.2°C 45.1°F7.3°C 49% 4.9 mph E7.9 kmh E 6.5 mph10.5 kmh 30.09 in1019.0 mb 0.00 in0.0 mm 0.00 in0.0 mm 0.00 in0.0 mm
03:32 AM 64.9°F18.3°C 45.3°F7.4°C 49% 4.5 mph ESE7.2 kmh ESE 7.6 mph12.2 kmh 30.09 in1019.0 mb 0.00 in0.0 mm 0.00 in0.0 mm 0.00 in0.0 mm
03:30 AM 64.9°F18.3°C 44.8°F7.1°C 48% 4.0 mph ESE6.4 kmh ESE 4.7 mph7.6 kmh 30.09 in1019.0 mb 0.00 in0.0 mm 0.00 in0.0 mm 0.00 in0.0 mm
03:28 AM 64.9°F18.3°C 44.8°F7.1°C 48% 4.5 mph SE7.2 kmh SE 5.8 mph9.3 kmh 30.09 in1019.0 mb 0.00 in0.0 mm 0.00 in0.0 mm 0.00 in0.0 mm
03:26 AM 65.1°F18.4°C 45.0°F7.2°C 48% 4.3 mph ESE6.9 kmh ESE 6.5 mph10.5 kmh 30.09 in1019.0 mb 0.00 in0.0 mm 0.00 in0.0 mm 0.00 in0.0 mm
03:24 AM 65.3°F18.5°C 44.6°F7.0°C 47% 4.0 mph SE6.4 kmh SE 5.1 mph8.2 kmh 30.08 in1018.6 mb 0.00 in0.0 mm 0.00 in0.0 mm 0.00 in0.0 mm
03:21 AM 65.5°F18.6°C 44.8°F7.1°C 47% 4.3 mph ESE6.9 kmh ESE 5.4 mph8.7 kmh 30.08 in1018.6 mb 0.00 in0.0 mm 0.00 in0.0 mm 0.00 in0.0 mm
03:19 AM 65.5°F18.6°C 44.8°F7.1°C 47% 4.5 mph ESE7.2 kmh ESE 5.6 mph9.0 kmh 30.08 in1018.6 mb 0.00 in0.0 mm 0.00 in0.0 mm 0.00 in0.0 mm
03:17 AM 65.5°F18.6°C 44.2°F6.8°C 46% 4.3 mph ESE6.9 kmh ESE 5.4 mph8.7 kmh 30.08 in1018.6 mb 0.00 in0.0 mm 0.00 in0.0 mm 0.00 in0.0 mm
03:14 AM 65.8°F18.8°C 44.4°F6.9°C 46% 4.3 mph ESE6.9 kmh ESE 5.8 mph9.3 kmh 30.08 in1018.6 mb 0.00 in0.0 mm 0.00 in0.0 mm 0.00 in0.0 mm
03:12 AM 65.8°F18.8°C 44.4°F6.9°C 46% 3.1 mph SE5.0 kmh SE 5.4 mph8.7 kmh 30.08 in1018.6 mb 0.00 in0.0 mm 0.00 in0.0 mm 0.00 in0.0 mm
03:10 AM 65.8°F18.8°C 44.4°F6.9°C 46% 2.2 mph SE3.5 kmh SE 3.6 mph5.8 kmh 30.08 in1018.6 mb 0.00 in0.0 mm 0.00 in0.0 mm 0.00 in0.0 mm
03:08 AM 65.8°F18.8°C 45.0°F7.2°C 47% 2.2 mph ESE3.5 kmh ESE 3.4 mph5.5 kmh 30.09 in1019.0 mb 0.00 in0.0 mm 0.00 in0.0 mm 0.00 in0.0 mm
03:06 AM 65.8°F18.8°C 45.0°F7.2°C 47% 2.0 mph SSE3.2 kmh SSE 3.1 mph5.0 kmh 30.08 in1018.6 mb 0.00 in0.0 mm 0.00 in0.0 mm 0.00 in0.0 mm
03:04 AM 65.5°F18.6°C 44.8°F7.1°C 47% 2.7 mph SE4.3 kmh SE 3.4 mph5.5 kmh 30.09 in1019.0 mb 0.00 in0.0 mm 0.00 in0.0 mm 0.00 in0.0 mm
03:01 AM 65.1°F18.4°C 45.0°F7.2°C 48% 2.9 mph SE4.7 kmh SE 3.4 mph5.5 kmh 30.08 in1018.6 mb 0.00 in0.0 mm 0.00 in0.0 mm 0.00 in0.0 mm
02:59 AM 64.9°F18.3°C 44.8°F7.1°C 48% 3.4 mph ESE5.5 kmh ESE 5.1 mph8.2 kmh 30.08 in1018.6 mb 0.00 in0.0 mm 0.00 in0.0 mm 0.00 in0.0 mm
02:57 AM 64.6°F18.1°C 44.4°F6.9°C 48% 3.1 mph ESE5.0 kmh ESE 5.1 mph8.2 kmh 30.09 in1019.0 mb 0.00 in0.0 mm 0.00 in0.0 mm 0.00 in0.0 mm
02:55 AM 64.6°F18.1°C 45.0°F7.2°C 49% 3.1 mph E5.0 kmh E 3.1 mph5.0 kmh 30.09 in1019.0 mb 0.00 in0.0 mm 0.00 in0.0 mm 0.00 in0.0 mm
02:52 AM 64.4°F18.0°C 44.8°F7.1°C 49% 3.8 mph SE6.1 kmh SE 4.3 mph6.9 kmh 30.08 in1018.6 mb 0.00 in0.0 mm 0.00 in0.0 mm 0.00 in0.0 mm
02:50 AM 64.2°F17.9°C 44.6°F7.0°C 49% 4.3 mph ESE6.9 kmh ESE 5.6 mph9.0 kmh 30.08 in1018.6 mb 0.00 in0.0 mm 0.00 in0.0 mm 0.00 in0.0 mm
02:48 AM 64.2°F17.9°C 45.1°F7.3°C 50% 4.3 mph ESE6.9 kmh ESE 6.0 mph9.7 kmh 30.08 in1018.6 mb 0.00 in0.0 mm 0.00 in0.0 mm 0.00 in0.0 mm
02:46 AM 64.2°F17.9°C 45.1°F7.3°C 50% 4.7 mph ESE7.6 kmh ESE 5.8 mph9.3 kmh 30.08 in1018.6 mb 0.00 in0.0 mm 0.00 in0.0 mm 0.00 in0.0 mm
02:43 AM 64.2°F17.9°C 45.1°F7.3°C 50% 4.7 mph SE7.6 kmh SE 5.6 mph9.0 kmh 30.08 in1018.6 mb 0.00 in0.0 mm 0.00 in0.0 mm 0.00 in0.0 mm
02:41 AM 64.2°F17.9°C 45.1°F7.3°C 50% 4.7 mph SE7.6 kmh SE 6.0 mph9.7 kmh 30.08 in1018.6 mb 0.00 in0.0 mm 0.00 in0.0 mm 0.00 in0.0 mm
02:39 AM 64.2°F17.9°C 45.1°F7.3°C 50% 4.3 mph SE6.9 kmh SE 6.0 mph9.7 kmh 30.08 in1018.6 mb 0.00 in0.0 mm 0.00 in0.0 mm 0.00 in0.0 mm
02:37 AM 64.2°F17.9°C 45.1°F7.3°C 50% 4.5 mph SE7.2 kmh SE 6.3 mph10.1 kmh 30.08 in1018.6 mb 0.00 in0.0 mm 0.00 in0.0 mm 0.00 in0.0 mm
02:34 AM 64.2°F17.9°C 45.1°F7.3°C 50% 4.3 mph E6.9 kmh E 5.1 mph8.2 kmh 30.08 in1018.6 mb 0.00 in0.0 mm 0.00 in0.0 mm 0.00 in0.0 mm
02:32 AM 64.2°F17.9°C 45.1°F7.3°C 50% 4.5 mph ESE7.2 kmh ESE 5.6 mph9.0 kmh 30.08 in1018.6 mb 0.00 in0.0 mm 0.00 in0.0 mm 0.00 in0.0 mm
02:30 AM 64.2°F17.9°C 45.1°F7.3°C 50% 4.5 mph ESE7.2 kmh ESE 5.4 mph8.7 kmh 30.08 in1018.6 mb 0.00 in0.0 mm 0.00 in0.0 mm 0.00 in0.0 mm
02:28 AM 64.0°F17.8°C 45.0°F7.2°C 50% 4.7 mph ESE7.6 kmh ESE 6.3 mph10.1 kmh 30.08 in1018.6 mb 0.00 in0.0 mm 0.00 in0.0 mm 0.00 in0.0 mm
02:26 AM 64.2°F17.9°C 45.1°F7.3°C 50% 4.5 mph ESE7.2 kmh ESE 5.8 mph9.3 kmh 30.07 in1018.3 mb 0.00 in0.0 mm 0.00 in0.0 mm 0.00 in0.0 mm
02:23 AM 64.2°F17.9°C 45.1°F7.3°C 50% 4.9 mph ESE7.9 kmh ESE 7.2 mph11.6 kmh 30.08 in1018.6 mb 0.00 in0.0 mm 0.00 in0.0 mm 0.00 in0.0 mm
02:21 AM 64.6°F18.1°C 45.5°F7.5°C 50% 4.5 mph SE7.2 kmh SE 4.9 mph7.9 kmh 30.07 in1018.3 mb 0.00 in0.0 mm 0.00 in0.0 mm 0.00 in0.0 mm
02:19 AM 64.6°F18.1°C 45.5°F7.5°C 50% 4.9 mph ESE7.9 kmh ESE 6.5 mph10.5 kmh 30.08 in1018.6 mb 0.00 in0.0 mm 0.00 in0.0 mm 0.00 in0.0 mm
02:16 AM 64.6°F18.1°C 45.5°F7.5°C 50% 4.5 mph E7.2 kmh E 5.1 mph8.2 kmh 30.07 in1018.3 mb 0.00 in0.0 mm 0.00 in0.0 mm 0.00 in0.0 mm
02:14 AM 64.8°F18.2°C 45.7°F7.6°C 50% 4.5 mph E7.2 kmh E 6.3 mph10.1 kmh 30.07 in1018.3 mb 0.00 in0.0 mm 0.00 in0.0 mm 0.00 in0.0 mm
02:12 AM 64.8°F18.2°C 45.7°F7.6°C 50% 4.0 mph E6.4 kmh E 6.0 mph9.7 kmh 30.07 in1018.3 mb 0.00 in0.0 mm 0.00 in0.0 mm 0.00 in0.0 mm
02:10 AM 64.8°F18.2°C 45.7°F7.6°C 50% 4.0 mph E6.4 kmh E 5.8 mph9.3 kmh 30.07 in1018.3 mb 0.00 in0.0 mm 0.00 in0.0 mm 0.00 in0.0 mm
02:08 AM 64.8°F18.2°C 45.7°F7.6°C 50% 3.4 mph ESE5.5 kmh ESE 5.8 mph9.3 kmh 30.07 in1018.3 mb 0.00 in0.0 mm 0.00 in0.0 mm 0.00 in0.0 mm
02:05 AM 64.9°F18.3°C 45.9°F7.7°C 50% 4.9 mph SE7.9 kmh SE -- 30.07 in1018.3 mb 0.00 in0.0 mm 0.00 in0.0 mm 0.00 in0.0 mm
01:58 AM 65.1°F18.4°C 46.0°F7.8°C 50% 5.1 mph SE8.2 kmh SE 6.9 mph11.1 kmh 30.08 in1018.6 mb 0.00 in0.0 mm 0.00 in0.0 mm 0.00 in0.0 mm
01:56 AM 65.1°F18.4°C 46.6°F8.1°C 51% 5.1 mph E8.2 kmh E 5.8 mph9.3 kmh 30.07 in1018.3 mb 0.00 in0.0 mm 0.00 in0.0 mm 0.00 in0.0 mm
01:54 AM 64.9°F18.3°C 46.4°F8.0°C 51% 5.1 mph E8.2 kmh E 7.8 mph12.6 kmh 30.07 in1018.3 mb 0.00 in0.0 mm 0.00 in0.0 mm 0.00 in0.0 mm
01:51 AM 64.6°F18.1°C 46.6°F8.1°C 52% 5.4 mph E8.7 kmh E 5.8 mph9.3 kmh 30.07 in1018.3 mb 0.00 in0.0 mm 0.00 in0.0 mm 0.00 in0.0 mm
01:49 AM 64.6°F18.1°C 46.6°F8.1°C 52% 6.3 mph E10.1 kmh E 7.6 mph12.2 kmh 30.08 in1018.6 mb 0.00 in0.0 mm 0.00 in0.0 mm 0.00 in0.0 mm
01:47 AM 64.4°F18.0°C 46.4°F8.0°C 52% 6.3 mph ESE10.1 kmh ESE 7.4 mph11.9 kmh 30.08 in1018.6 mb 0.00 in0.0 mm 0.00 in0.0 mm 0.00 in0.0 mm
01:45 AM 64.2°F17.9°C 46.2°F7.9°C 52% 6.5 mph ESE10.5 kmh ESE 7.4 mph11.9 kmh 30.08 in1018.6 mb 0.00 in0.0 mm 0.00 in0.0 mm 0.00 in0.0 mm
01:42 AM 64.4°F18.0°C 46.9°F8.3°C 53% 6.5 mph ESE10.5 kmh ESE 7.8 mph12.6 kmh 30.08 in1018.6 mb 0.00 in0.0 mm 0.00 in0.0 mm 0.00 in0.0 mm
01:40 AM 64.4°F18.0°C 46.9°F8.3°C 53% 6.3 mph SE10.1 kmh SE 8.5 mph13.7 kmh 30.08 in1018.6 mb 0.00 in0.0 mm 0.00 in0.0 mm 0.00 in0.0 mm
01:38 AM 64.2°F17.9°C 46.8°F8.2°C 53% 5.6 mph ESE9.0 kmh ESE 7.4 mph11.9 kmh 30.08 in1018.6 mb 0.00 in0.0 mm 0.00 in0.0 mm 0.00 in0.0 mm
01:36 AM 64.2°F17.9°C 46.8°F8.2°C 53% 4.9 mph E7.9 kmh E 5.6 mph9.0 kmh 30.07 in1018.3 mb 0.00 in0.0 mm 0.00 in0.0 mm 0.00 in0.0 mm
01:33 AM 64.2°F17.9°C 46.8°F8.2°C 53% 5.1 mph SE8.2 kmh SE 7.2 mph11.6 kmh 30.08 in1018.6 mb 0.00 in0.0 mm 0.00 in0.0 mm 0.00 in0.0 mm
01:31 AM 64.2°F17.9°C 46.8°F8.2°C 53% 4.9 mph ESE7.9 kmh ESE 6.3 mph10.1 kmh 30.08 in1018.6 mb 0.00 in0.0 mm 0.00 in0.0 mm 0.00 in0.0 mm
01:29 AM 64.2°F17.9°C 46.8°F8.2°C 53% 5.8 mph SE9.3 kmh SE 6.9 mph11.1 kmh 30.08 in1018.6 mb 0.00 in0.0 mm 0.00 in0.0 mm 0.00 in0.0 mm
01:27 AM 64.2°F17.9°C 46.8°F8.2°C 53% 5.4 mph SE8.7 kmh SE 6.3 mph10.1 kmh 30.08 in1018.6 mb 0.00 in0.0 mm 0.00 in0.0 mm 0.00 in0.0 mm
01:25 AM 64.2°F17.9°C 46.2°F7.9°C 52% 5.8 mph ESE9.3 kmh ESE 7.8 mph12.6 kmh 30.09 in1019.0 mb 0.00 in0.0 mm 0.00 in0.0 mm 0.00 in0.0 mm
01:22 AM 64.2°F17.9°C 46.2°F7.9°C 52% 6.0 mph ESE9.7 kmh ESE 6.5 mph10.5 kmh 30.09 in1019.0 mb 0.00 in0.0 mm 0.00 in0.0 mm 0.00 in0.0 mm
01:20 AM 64.6°F18.1°C 46.6°F8.1°C 52% 6.7 mph ESE10.8 kmh ESE 7.2 mph11.6 kmh 30.09 in1019.0 mb 0.00 in0.0 mm 0.00 in0.0 mm 0.00 in0.0 mm
01:18 AM 64.8°F18.2°C 46.8°F8.2°C 52% 6.5 mph ESE10.5 kmh ESE 6.9 mph11.1 kmh 30.08 in1018.6 mb 0.00 in0.0 mm 0.00 in0.0 mm 0.00 in0.0 mm
01:16 AM 64.9°F18.3°C 46.9°F8.3°C 52% 6.7 mph ESE10.8 kmh ESE 8.7 mph14.0 kmh 30.09 in1019.0 mb 0.00 in0.0 mm 0.00 in0.0 mm 0.00 in0.0 mm
01:14 AM 65.1°F18.4°C 46.6°F8.1°C 51% 6.3 mph ESE10.1 kmh ESE 8.3 mph13.4 kmh 30.08 in1018.6 mb 0.00 in0.0 mm 0.00 in0.0 mm 0.00 in0.0 mm
01:12 AM 65.1°F18.4°C 46.6°F8.1°C 51% 5.8 mph ESE9.3 kmh ESE 6.9 mph11.1 kmh 30.08 in1018.6 mb 0.00 in0.0 mm 0.00 in0.0 mm 0.00 in0.0 mm
01:09 AM 65.1°F18.4°C 46.6°F8.1°C 51% 5.4 mph SE8.7 kmh SE 7.4 mph11.9 kmh 30.08 in1018.6 mb 0.00 in0.0 mm 0.00 in0.0 mm 0.00 in0.0 mm
01:07 AM 65.1°F18.4°C 46.6°F8.1°C 51% 4.7 mph ESE7.6 kmh ESE 4.9 mph7.9 kmh 30.09 in1019.0 mb 0.00 in0.0 mm 0.00 in0.0 mm 0.00 in0.0 mm
01:05 AM 65.1°F18.4°C 46.6°F8.1°C 51% 4.7 mph SE7.6 kmh SE 5.1 mph8.2 kmh 30.08 in1018.6 mb 0.00 in0.0 mm 0.00 in0.0 mm 0.00 in0.0 mm
01:03 AM 65.1°F18.4°C 46.6°F8.1°C 51% 4.7 mph SE7.6 kmh SE 4.5 mph7.2 kmh 30.09 in1019.0 mb 0.00 in0.0 mm 0.00 in0.0 mm 0.00 in0.0 mm
01:01 AM 65.1°F18.4°C 46.6°F8.1°C 51% 5.1 mph ESE8.2 kmh ESE 4.9 mph7.9 kmh 30.09 in1019.0 mb 0.00 in0.0 mm 0.00 in0.0 mm 0.00 in0.0 mm
12:58 AM 65.1°F18.4°C 46.6°F8.1°C 51% 5.8 mph ESE9.3 kmh ESE 6.9 mph11.1 kmh 30.09 in1019.0 mb 0.00 in0.0 mm 0.00 in0.0 mm 0.00 in0.0 mm
12:56 AM 65.1°F18.4°C 46.6°F8.1°C 51% 5.8 mph E9.3 kmh E 5.8 mph9.3 kmh 30.09 in1019.0 mb 0.00 in0.0 mm 0.00 in0.0 mm 0.00 in0.0 mm
12:54 AM 65.1°F18.4°C 46.6°F8.1°C 51% 6.9 mph ESE11.1 kmh ESE 8.1 mph13.0 kmh 30.09 in1019.0 mb 0.00 in0.0 mm 0.00 in0.0 mm 0.00 in0.0 mm
12:52 AM 64.9°F18.3°C 46.4°F8.0°C 51% 6.9 mph ESE11.1 kmh ESE 8.5 mph13.7 kmh 30.09 in1019.0 mb 0.00 in0.0 mm 0.00 in0.0 mm 0.00 in0.0 mm
12:49 AM 64.9°F18.3°C 46.4°F8.0°C 51% 6.0 mph E9.7 kmh E 7.8 mph12.6 kmh 30.09 in1019.0 mb 0.00 in0.0 mm 0.00 in0.0 mm 0.00 in0.0 mm
12:47 AM 65.1°F18.4°C 46.6°F8.1°C 51% 5.6 mph E9.0 kmh E 7.6 mph12.2 kmh 30.09 in1019.0 mb 0.00 in0.0 mm 0.00 in0.0 mm 0.00 in0.0 mm
12:45 AM 65.1°F18.4°C 46.0°F7.8°C 50% 5.1 mph E8.2 kmh E 8.9 mph14.3 kmh 30.09 in1019.0 mb 0.00 in0.0 mm 0.00 in0.0 mm 0.00 in0.0 mm
12:42 AM 65.1°F18.4°C 46.0°F7.8°C 50% 4.3 mph SE6.9 kmh SE 5.4 mph8.7 kmh 30.09 in1019.0 mb 0.00 in0.0 mm 0.00 in0.0 mm 0.00 in0.0 mm
12:40 AM 65.3°F18.5°C 46.2°F7.9°C 50% 4.9 mph E7.9 kmh E 5.6 mph9.0 kmh 30.09 in1019.0 mb 0.00 in0.0 mm 0.00 in0.0 mm 0.00 in0.0 mm
12:38 AM 65.5°F18.6°C 46.4°F8.0°C 50% 5.1 mph E8.2 kmh E 6.3 mph10.1 kmh 30.09 in1019.0 mb 0.00 in0.0 mm 0.00 in0.0 mm 0.00 in0.0 mm
12:36 AM 65.5°F18.6°C 46.4°F8.0°C 50% 5.8 mph ESE9.3 kmh ESE 6.3 mph10.1 kmh 30.09 in1019.0 mb 0.00 in0.0 mm 0.00 in0.0 mm 0.00 in0.0 mm
12:34 AM 65.8°F18.8°C 46.8°F8.2°C 50% 6.0 mph ESE9.7 kmh ESE 6.9 mph11.1 kmh 30.09 in1019.0 mb 0.00 in0.0 mm 0.00 in0.0 mm 0.00 in0.0 mm
12:32 AM 66.0°F18.9°C 46.4°F8.0°C 49% 6.5 mph SE10.5 kmh SE 8.1 mph13.0 kmh 30.09 in1019.0 mb 0.00 in0.0 mm 0.00 in0.0 mm 0.00 in0.0 mm
12:30 AM 66.0°F18.9°C 46.4°F8.0°C 49% 5.8 mph ESE9.3 kmh ESE 6.5 mph10.5 kmh 30.09 in1019.0 mb 0.00 in0.0 mm 0.00 in0.0 mm 0.00 in0.0 mm
12:28 AM 66.4°F19.1°C 46.6°F8.1°C 49% 5.8 mph ESE9.3 kmh ESE 6.9 mph11.1 kmh 30.09 in1019.0 mb 0.00 in0.0 mm 0.00 in0.0 mm 0.00 in0.0 mm
12:26 AM 66.7°F19.3°C 46.4°F8.0°C 48% 5.8 mph ENE9.3 kmh ENE 6.0 mph9.7 kmh 30.09 in1019.0 mb 0.00 in0.0 mm 0.00 in0.0 mm 0.00 in0.0 mm
12:24 AM 66.9°F19.4°C 46.6°F8.1°C 48% 6.3 mph ESE10.1 kmh ESE 8.3 mph13.4 kmh 30.08 in1018.6 mb 0.00 in0.0 mm 0.00 in0.0 mm 0.00 in0.0 mm
12:21 AM 67.3°F19.6°C 46.9°F8.3°C 48% 6.0 mph E9.7 kmh E 7.2 mph11.6 kmh 30.08 in1018.6 mb 0.00 in0.0 mm 0.00 in0.0 mm 0.00 in0.0 mm
12:19 AM 67.3°F19.6°C 46.9°F8.3°C 48% 5.6 mph ESE9.0 kmh ESE 6.9 mph11.1 kmh 30.09 in1019.0 mb 0.00 in0.0 mm 0.00 in0.0 mm 0.00 in0.0 mm
12:17 AM 67.3°F19.6°C 46.9°F8.3°C 48% 5.4 mph ESE8.7 kmh ESE 6.7 mph10.8 kmh 30.09 in1019.0 mb 0.00 in0.0 mm 0.00 in0.0 mm 0.00 in0.0 mm
12:14 AM 67.3°F19.6°C 46.9°F8.3°C 48% 5.4 mph SE8.7 kmh SE 6.5 mph10.5 kmh 30.08 in1018.6 mb 0.00 in0.0 mm 0.00 in0.0 mm 0.00 in0.0 mm
12:12 AM 67.5°F19.7°C 47.1°F8.4°C 48% 5.8 mph ESE9.3 kmh ESE 7.4 mph11.9 kmh 30.08 in1018.6 mb 0.00 in0.0 mm 0.00 in0.0 mm 0.00 in0.0 mm
12:10 AM 67.6°F19.8°C 46.8°F8.2°C 47% 5.1 mph SE8.2 kmh SE 8.1 mph13.0 kmh 30.08 in1018.6 mb 0.00 in0.0 mm 0.00 in0.0 mm 0.00 in0.0 mm
12:08 AM 67.8°F19.9°C 46.9°F8.3°C 47% 4.5 mph ESE7.2 kmh ESE 5.8 mph9.3 kmh 30.08 in1018.6 mb 0.00 in0.0 mm 0.00 in0.0 mm 0.00 in0.0 mm
12:06 AM 67.8°F19.9°C 46.9°F8.3°C 47% 4.5 mph SE7.2 kmh SE 5.8 mph9.3 kmh 30.08 in1018.6 mb 0.00 in0.0 mm 0.00 in0.0 mm 0.00 in0.0 mm
12:03 AM 67.8°F19.9°C 46.9°F8.3°C 47% 4.5 mph SE7.2 kmh SE 5.1 mph8.2 kmh 30.08 in1018.6 mb 0.00 in0.0 mm 0.00 in0.0 mm 0.00 in0.0 mm
12:01 AM 67.8°F19.9°C 46.9°F8.3°C 47% 4.5 mph ESE7.2 kmh ESE 5.6 mph9.0 kmh 30.08 in1018.6 mb 0.00 in0.0 mm 0.00 in0.0 mm 0.00 in0.0 mm